createdAt,value
2019-02-06T00:01:19.292Z,0.10
2019-02-06T00:03:47.946Z,0.10
2019-02-06T00:06:16.506Z,0.10
2019-02-06T00:08:45.100Z,0.10
2019-02-06T00:11:13.763Z,0.20
2019-02-06T00:13:42.364Z,0.20
2019-02-06T00:16:11.102Z,0.20
2019-02-06T00:18:39.681Z,0.20
2019-02-06T00:21:08.229Z,0.30
2019-02-06T00:23:36.814Z,0.20
2019-02-06T00:26:05.513Z,0.20
2019-02-06T00:28:34.279Z,0.20
2019-02-06T00:31:02.872Z,0.10
2019-02-06T00:33:31.511Z,0.10
2019-02-06T00:36:00.167Z,0.00
2019-02-06T00:38:28.731Z,0.00
2019-02-06T00:40:57.320Z,0.00
2019-02-06T00:43:26.182Z,0.00
2019-02-06T00:45:54.939Z,0.00
2019-02-06T00:48:23.579Z,0.00
2019-02-06T00:50:52.235Z,0.00
2019-02-06T00:53:20.807Z,0.00
2019-02-06T00:55:49.396Z,0.00
2019-02-06T00:58:17.966Z,0.00
2019-02-06T01:00:46.546Z,0.00
2019-02-06T01:03:15.327Z,0.00
2019-02-06T01:05:44.249Z,0.00
2019-02-06T01:08:13.048Z,0.00
2019-02-06T01:10:41.645Z,-0.10
2019-02-06T01:13:10.210Z,-0.20
2019-02-06T01:15:39.007Z,-0.20
2019-02-06T01:18:07.828Z,-0.20
2019-02-06T01:20:36.410Z,-0.20
2019-02-06T01:23:05.238Z,-0.20
2019-02-06T01:25:33.837Z,-0.20
2019-02-06T01:28:02.411Z,-0.20
2019-02-06T01:30:35.318Z,-0.20
2019-02-06T01:33:03.883Z,-0.30
2019-02-06T01:35:32.471Z,-0.30
2019-02-06T01:38:01.048Z,-0.40
2019-02-06T01:40:29.640Z,-0.60
2019-02-06T01:42:58.199Z,-0.60
2019-02-06T01:45:26.791Z,-0.80
2019-02-06T01:47:55.559Z,-0.90
2019-02-06T01:50:24.156Z,-1.00
2019-02-06T01:52:52.718Z,-1.10
2019-02-06T01:55:21.310Z,-1.20
2019-02-06T01:57:49.879Z,-1.30
2019-02-06T02:00:21.651Z,-1.40
2019-02-06T02:02:50.223Z,-1.40
2019-02-06T02:05:21.014Z,-1.50
2019-02-06T02:07:50.523Z,-1.70
2019-02-06T02:10:22.369Z,-1.80
2019-02-06T02:12:51.075Z,-1.70
2019-02-06T02:15:20.347Z,-1.50
2019-02-06T02:17:49.054Z,-1.60
2019-02-06T02:20:23.245Z,-1.60
2019-02-06T02:22:52.048Z,-1.60
2019-02-06T02:25:20.885Z,-1.70
2019-02-06T02:27:49.527Z,-2.00
2019-02-06T02:30:22.659Z,-2.10
2019-02-06T02:32:51.524Z,-2.20
2019-02-06T02:35:20.127Z,-2.30
2019-02-06T02:37:48.767Z,-2.40
2019-02-06T02:40:17.435Z,-2.50
2019-02-06T02:42:46.004Z,-2.60
2019-02-06T02:45:16.709Z,-2.70
2019-02-06T02:47:46.623Z,-2.80
2019-02-06T02:50:15.461Z,-3.00
2019-02-06T02:52:44.167Z,-3.00
2019-02-06T02:55:13.698Z,-3.10
2019-02-06T02:57:42.420Z,-3.20
2019-02-06T03:00:17.064Z,-3.10
2019-02-06T03:02:59.353Z,-3.10
2019-02-06T03:05:29.615Z,-3.20
2019-02-06T03:07:58.187Z,-3.30
2019-02-06T03:10:26.775Z,-3.40
2019-02-06T03:12:55.346Z,-3.50
2019-02-06T03:15:24.238Z,-3.60
2019-02-06T03:17:52.803Z,-3.60
2019-02-06T03:20:21.403Z,-3.60
2019-02-06T03:22:50.043Z,-3.80
2019-02-06T03:25:18.631Z,-3.80
2019-02-06T03:27:47.222Z,-3.90
2019-02-06T03:30:17.873Z,-4.00
2019-02-06T03:32:46.588Z,-4.00
2019-02-06T03:35:15.517Z,-4.10
2019-02-06T03:37:44.092Z,-4.10
2019-02-06T03:40:15.291Z,-4.20
2019-02-06T03:42:43.866Z,-4.30
2019-02-06T03:45:13.495Z,-4.40
2019-02-06T03:47:42.063Z,-4.50
2019-02-06T03:50:13.731Z,-4.50
2019-02-06T03:52:42.304Z,-4.40
2019-02-06T03:55:11.815Z,-4.40
2019-02-06T03:57:40.411Z,-4.30
2019-02-06T04:00:12.418Z,-4.30
2019-02-06T04:02:41.003Z,-4.30
2019-02-06T04:05:10.714Z,-4.40
2019-02-06T04:07:39.304Z,-4.50
2019-02-06T04:10:13.694Z,-4.60
2019-02-06T04:12:42.297Z,-4.70
2019-02-06T04:15:11.398Z,-4.70
2019-02-06T04:17:39.991Z,-4.80
2019-02-06T04:20:15.894Z,-5.00
2019-02-06T04:22:44.556Z,-5.10
2019-02-06T04:25:14.767Z,-5.00
2019-02-06T04:27:43.531Z,-5.10
2019-02-06T04:30:17.132Z,-5.10
2019-02-06T04:32:45.790Z,-5.20
2019-02-06T04:35:15.300Z,-5.30
2019-02-06T04:37:43.964Z,-5.30
2019-02-06T04:40:18.135Z,-5.40
2019-02-06T04:42:47.376Z,-5.40
2019-02-06T04:45:18.637Z,-5.40
2019-02-06T04:47:47.241Z,-5.50
2019-02-06T04:50:17.140Z,-5.60
2019-02-06T04:52:45.805Z,-5.50
2019-02-06T04:55:18.879Z,-5.60
2019-02-06T04:57:47.780Z,-5.70
2019-02-06T05:00:19.062Z,-5.80
2019-02-06T05:02:47.650Z,-5.80
2019-02-06T05:05:16.305Z,-5.80
2019-02-06T05:07:44.946Z,-5.80
2019-02-06T05:10:14.758Z,-5.90
2019-02-06T05:12:43.923Z,-5.90
2019-02-06T05:15:14.327Z,-5.90
2019-02-06T05:17:42.914Z,-5.90
2019-02-06T05:20:29.413Z,-6.00
2019-02-06T05:22:58.007Z,-6.00
2019-02-06T05:25:26.875Z,-6.10
2019-02-06T05:27:55.541Z,-6.20
2019-02-06T05:30:24.119Z,-6.20
2019-02-06T05:32:52.707Z,-6.10
2019-02-06T05:35:21.280Z,-6.10
2019-02-06T05:37:49.868Z,-6.10
2019-02-06T05:40:18.642Z,-6.10
2019-02-06T05:42:47.436Z,-6.10
2019-02-06T05:45:16.848Z,-6.10
2019-02-06T05:47:45.524Z,-6.00
2019-02-06T05:50:16.324Z,-5.90
2019-02-06T05:52:44.988Z,-5.90
2019-02-06T05:55:15.106Z,-5.90
2019-02-06T05:57:44.096Z,-6.10
2019-02-06T06:00:25.548Z,-6.10
2019-02-06T06:02:54.149Z,-6.20
2019-02-06T06:05:22.891Z,-6.30
2019-02-06T06:07:51.595Z,-6.30
2019-02-06T06:10:20.230Z,-6.40
2019-02-06T06:12:48.833Z,-6.40
2019-02-06T06:15:19.332Z,-6.40
2019-02-06T06:17:47.931Z,-6.60
2019-02-06T06:20:20.749Z,-6.60
2019-02-06T06:22:49.571Z,-6.60
2019-02-06T06:25:19.689Z,-6.60
2019-02-06T06:27:48.592Z,-6.60
2019-02-06T06:30:19.202Z,-6.60
2019-02-06T06:32:47.862Z,-6.50
2019-02-06T06:35:16.432Z,-6.50
2019-02-06T06:37:57.143Z,-6.40
2019-02-06T06:40:18.075Z,-6.30
2019-02-06T06:42:47.068Z,-6.40
2019-02-06T06:45:18.184Z,-6.50
2019-02-06T06:47:46.851Z,-6.50
2019-02-06T06:50:17.854Z,-6.40
2019-02-06T06:52:46.518Z,-6.40
2019-02-06T06:55:16.228Z,-6.40
2019-02-06T06:57:45.247Z,-6.50
2019-02-06T07:00:19.169Z,-6.50
2019-02-06T07:02:47.762Z,-6.50
2019-02-06T07:05:16.867Z,-6.50
2019-02-06T07:07:45.459Z,-6.40
2019-02-06T07:10:15.770Z,-6.40
2019-02-06T07:12:44.363Z,-6.20
2019-02-06T07:15:15.939Z,-6.40
2019-02-06T07:17:44.535Z,-6.40
2019-02-06T07:20:15.541Z,-6.40
2019-02-06T07:22:44.196Z,-6.30
2019-02-06T07:25:15.543Z,-6.20
2019-02-06T07:27:44.135Z,-6.10
2019-02-06T07:30:27.498Z,-5.80
2019-02-06T07:32:56.339Z,-5.70
2019-02-06T07:35:24.989Z,-5.60
2019-02-06T07:37:53.651Z,-5.60
2019-02-06T07:40:22.763Z,-5.60
2019-02-06T07:42:51.432Z,-5.50
2019-02-06T07:45:20.538Z,-5.60
2019-02-06T07:47:49.133Z,-5.80
2019-02-06T07:50:23.142Z,-5.60
2019-02-06T07:52:51.751Z,-5.50
2019-02-06T07:55:20.471Z,-5.40
2019-02-06T07:57:49.149Z,-5.30
2019-02-06T08:00:17.771Z,-5.10
2019-02-06T08:02:47.102Z,-5.00
2019-02-06T08:05:22.262Z,-4.60
2019-02-06T08:07:51.492Z,-4.40
2019-02-06T08:10:23.134Z,-4.20
2019-02-06T08:12:51.869Z,-3.90
2019-02-06T08:15:20.679Z,-3.80
2019-02-06T08:17:49.338Z,-3.50
2019-02-06T08:20:20.815Z,-3.50
2019-02-06T08:22:49.410Z,-3.30
2019-02-06T08:25:19.737Z,-3.10
2019-02-06T08:27:48.580Z,-3.10
2019-02-06T08:30:22.850Z,-3.00
2019-02-06T08:32:51.427Z,-2.80
2019-02-06T08:35:20.015Z,-2.80
2019-02-06T08:37:49.059Z,-2.60
2019-02-06T08:40:20.292Z,-2.70
2019-02-06T08:42:48.863Z,-2.70
2019-02-06T08:45:18.197Z,-2.60
2019-02-06T08:47:46.834Z,-2.50
2019-02-06T08:50:18.067Z,-2.40
2019-02-06T08:52:47.078Z,-2.30
2019-02-06T08:55:18.503Z,-2.10
2019-02-06T08:57:47.369Z,-1.90
2019-02-06T09:00:34.202Z,-1.70
2019-02-06T09:03:02.995Z,-1.50
2019-02-06T09:05:31.587Z,-1.20
2019-02-06T09:08:00.147Z,-1.10
2019-02-06T09:10:30.279Z,-0.80
2019-02-06T09:12:59.680Z,-0.60
2019-02-06T09:15:28.621Z,-0.50
2019-02-06T09:17:57.651Z,-0.40
2019-02-06T09:20:27.587Z,-0.30
2019-02-06T09:22:56.390Z,-0.20
2019-02-06T09:25:26.115Z,0.00
2019-02-06T09:27:54.851Z,0.00
2019-02-06T09:30:31.098Z,0.20
2019-02-06T09:32:59.702Z,0.30
2019-02-06T09:35:28.367Z,0.50
2019-02-06T09:37:56.926Z,0.60
2019-02-06T09:40:27.443Z,0.70
2019-02-06T09:42:56.090Z,0.90
2019-02-06T09:45:24.831Z,0.80
2019-02-06T09:47:53.394Z,0.80
2019-02-06T09:50:24.789Z,0.80
2019-02-06T09:52:53.427Z,0.90
2019-02-06T09:55:22.074Z,0.90
2019-02-06T09:57:50.803Z,0.90
2019-02-06T10:00:22.222Z,0.90
2019-02-06T10:02:50.784Z,1.00
2019-02-06T10:05:19.668Z,1.00
2019-02-06T10:07:48.226Z,1.10
2019-02-06T10:10:18.749Z,1.20
2019-02-06T10:12:47.308Z,1.30
2019-02-06T10:15:33.831Z,1.30
2019-02-06T10:18:02.765Z,1.40
2019-02-06T10:20:34.159Z,1.50
2019-02-06T10:23:03.094Z,1.60
2019-02-06T10:25:31.814Z,1.60
2019-02-06T10:28:00.379Z,1.60
2019-02-06T10:30:32.041Z,1.70
2019-02-06T10:33:01.045Z,1.70
2019-02-06T10:35:29.627Z,1.80
2019-02-06T10:37:58.190Z,2.10
2019-02-06T10:40:27.047Z,2.20
2019-02-06T10:42:55.778Z,2.30
2019-02-06T10:45:24.505Z,2.30
2019-02-06T10:47:53.367Z,2.40
2019-02-06T10:50:33.531Z,2.60
2019-02-06T10:53:02.095Z,2.50
2019-02-06T10:55:30.675Z,2.50
2019-02-06T10:57:59.323Z,2.50
2019-02-06T11:00:36.866Z,2.50
2019-02-06T11:03:05.771Z,2.50
2019-02-06T11:05:34.522Z,2.50
2019-02-06T11:08:03.223Z,2.60
2019-02-06T11:10:31.819Z,2.60
2019-02-06T11:13:00.384Z,2.70
2019-02-06T11:15:29.609Z,2.80
2019-02-06T11:17:58.190Z,2.90
2019-02-06T11:20:31.958Z,2.90
2019-02-06T11:23:00.658Z,3.00
2019-02-06T11:25:29.410Z,3.20
2019-02-06T11:27:57.990Z,3.20
2019-02-06T11:30:32.490Z,3.40
2019-02-06T11:33:01.123Z,3.40
2019-02-06T11:35:29.707Z,3.30
2019-02-06T11:37:58.277Z,3.20
2019-02-06T11:40:26.855Z,3.20
2019-02-06T11:42:55.489Z,3.20
2019-02-06T11:45:32.333Z,3.20
2019-02-06T11:48:01.235Z,3.30
2019-02-06T11:50:34.683Z,3.40
2019-02-06T11:53:03.247Z,3.50
2019-02-06T11:55:32.365Z,3.50
2019-02-06T11:58:00.923Z,3.60
2019-02-06T12:00:31.208Z,3.60
2019-02-06T12:02:59.838Z,3.60
2019-02-06T12:05:28.422Z,3.60
2019-02-06T12:07:56.983Z,3.70
2019-02-06T12:10:25.635Z,3.60
2019-02-06T12:12:54.266Z,3.70
2019-02-06T12:15:23.155Z,3.70
2019-02-06T12:17:51.719Z,3.80
2019-02-06T12:20:26.519Z,3.70
2019-02-06T12:22:55.079Z,3.70
2019-02-06T12:25:23.759Z,3.80
2019-02-06T12:27:56.664Z,3.90
2019-02-06T12:30:30.432Z,3.90
2019-02-06T12:32:59.134Z,3.80
2019-02-06T12:35:27.955Z,3.90
2019-02-06T12:37:56.755Z,3.90
2019-02-06T12:43:19.453Z,3.90
2019-02-06T12:46:00.260Z,4.10
2019-02-06T12:48:40.869Z,4.10
2019-02-06T12:51:21.994Z,4.20
2019-02-06T12:54:02.939Z,4.20
2019-02-06T12:56:43.975Z,4.30
2019-02-06T12:59:24.620Z,4.40
2019-02-06T13:02:05.472Z,4.40
2019-02-06T13:04:46.111Z,4.40
2019-02-06T13:07:27.031Z,4.30
2019-02-06T13:10:07.751Z,4.30
2019-02-06T13:12:48.403Z,4.40
2019-02-06T13:15:29.119Z,4.40
2019-02-06T13:18:09.914Z,4.40
2019-02-06T13:20:51.488Z,4.50
2019-02-06T13:23:32.202Z,4.40
2019-02-06T13:26:12.932Z,4.40
2019-02-06T13:28:53.620Z,4.60
2019-02-06T13:31:34.405Z,4.60
2019-02-06T13:34:15.280Z,4.70
2019-02-06T13:36:56.075Z,4.70
2019-02-06T13:39:36.784Z,4.70
2019-02-06T13:42:17.766Z,4.70
2019-02-06T13:44:58.673Z,4.60
2019-02-06T13:47:39.499Z,4.70
2019-02-06T13:50:22.291Z,4.70
2019-02-06T13:53:03.236Z,4.70
2019-02-06T13:55:43.779Z,4.70
2019-02-06T13:58:24.628Z,4.70
2019-02-06T14:01:05.194Z,4.70
2019-02-06T14:03:46.024Z,4.80
2019-02-06T14:06:27.078Z,4.70
2019-02-06T14:09:21.633Z,4.70
2019-02-06T14:11:51.839Z,4.70
2019-02-06T14:14:32.339Z,4.60
2019-02-06T14:17:13.288Z,4.50
2019-02-06T14:19:54.413Z,4.50
2019-02-06T14:22:35.367Z,4.50
2019-02-06T14:25:15.884Z,4.50
2019-02-06T14:27:56.627Z,4.40
2019-02-06T14:30:37.211Z,4.40
2019-02-06T14:33:18.175Z,4.30
2019-02-06T14:35:58.764Z,4.20
2019-02-06T14:38:39.403Z,4.20
2019-02-06T14:41:20.063Z,4.10
2019-02-06T14:44:00.542Z,4.10
2019-02-06T14:46:41.248Z,4.10
2019-02-06T14:49:21.914Z,4.10
2019-02-06T14:52:02.444Z,4.00
2019-02-06T14:54:43.190Z,3.90
2019-02-06T14:57:23.896Z,3.90
2019-02-06T15:00:04.299Z,3.80
2019-02-06T15:02:44.868Z,3.70
2019-02-06T15:05:25.976Z,3.60
2019-02-06T15:08:07.011Z,3.60
2019-02-06T15:10:47.887Z,3.50
2019-02-06T15:13:28.716Z,3.40
2019-02-06T15:16:10.028Z,3.30
2019-02-06T15:18:50.940Z,3.20
2019-02-06T15:21:31.632Z,3.10
2019-02-06T15:24:12.583Z,2.90
2019-02-06T15:26:53.232Z,2.70
2019-02-06T15:29:34.316Z,2.40
2019-02-06T15:32:14.983Z,2.40
2019-02-06T15:34:56.207Z,2.20
2019-02-06T15:37:36.780Z,2.10
2019-02-06T15:40:17.819Z,1.80
2019-02-06T15:42:58.532Z,1.70
2019-02-06T15:45:38.857Z,1.50
2019-02-06T15:48:19.550Z,1.30
2019-02-06T15:50:59.871Z,1.10
2019-02-06T15:53:40.713Z,0.90
2019-02-06T15:56:21.963Z,0.80
2019-02-06T15:59:02.768Z,0.70
2019-02-06T16:01:43.365Z,0.60
2019-02-06T16:07:17.516Z,0.30
2019-02-06T16:09:58.068Z,0.10
2019-02-06T16:12:38.671Z,-0.10
2019-02-06T16:15:19.279Z,-0.20
2019-02-06T16:18:00.099Z,-0.30
2019-02-06T16:20:40.934Z,-0.30
2019-02-06T16:23:21.380Z,-0.40
2019-02-06T16:26:02.363Z,-0.60
2019-02-06T16:28:43.267Z,-0.70
2019-02-06T16:31:23.718Z,-0.80
2019-02-06T16:34:04.739Z,-1.00
2019-02-06T16:36:45.515Z,-1.10
2019-02-06T16:39:26.547Z,-1.20
2019-02-06T16:42:07.127Z,-1.30
2019-02-06T16:44:47.919Z,-1.30
2019-02-06T16:47:28.407Z,-1.40
2019-02-06T16:50:09.256Z,-1.50
2019-02-06T16:52:50.042Z,-1.60
2019-02-06T16:55:30.660Z,-1.70
2019-02-06T16:58:11.231Z,-1.80
2019-02-06T17:00:52.052Z,-1.80
2019-02-06T17:03:32.993Z,-1.80
2019-02-06T17:06:14.059Z,-1.90
2019-02-06T17:08:55.147Z,-2.00
2019-02-06T17:11:36.067Z,-2.10
2019-02-06T17:14:16.674Z,-2.10
2019-02-06T17:16:57.275Z,-2.20
2019-02-06T17:19:37.976Z,-2.30
2019-02-06T17:22:18.663Z,-2.30
2019-02-06T17:24:59.218Z,-2.30
2019-02-06T17:27:39.937Z,-2.30
2019-02-06T17:30:20.388Z,-2.40
2019-02-06T17:33:01.275Z,-2.40
2019-02-06T17:35:42.111Z,-2.60
2019-02-06T17:38:22.480Z,-2.50
2019-02-06T17:41:03.153Z,-2.50
2019-02-06T17:43:43.898Z,-2.50
2019-02-06T17:46:24.456Z,-2.50
2019-02-06T17:49:05.487Z,-2.50
2019-02-06T17:51:46.257Z,-2.60
2019-02-06T17:54:26.991Z,-2.60
2019-02-06T17:57:07.464Z,-2.60
2019-02-06T17:59:48.223Z,-2.70
2019-02-06T18:02:28.936Z,-2.60
2019-02-06T18:05:09.594Z,-2.60
2019-02-06T18:07:50.300Z,-2.70
2019-02-06T18:10:31.855Z,-2.70
2019-02-06T18:13:12.627Z,-2.60
2019-02-06T18:15:53.479Z,-2.60
2019-02-06T18:18:34.351Z,-2.60
2019-02-06T18:21:14.861Z,-2.60
2019-02-06T18:23:55.345Z,-2.60
2019-02-06T18:26:35.859Z,-2.80
2019-02-06T18:29:16.836Z,-2.80
2019-02-06T18:31:57.496Z,-2.90
2019-02-06T18:34:38.363Z,-2.90
2019-02-06T18:37:18.812Z,-3.00
2019-02-06T18:39:59.782Z,-2.90
2019-02-06T18:42:40.405Z,-2.80
2019-02-06T18:45:21.303Z,-2.90
2019-02-06T18:48:01.872Z,-2.90
2019-02-06T18:50:42.715Z,-2.90
2019-02-06T18:53:23.482Z,-2.90
2019-02-06T18:56:04.294Z,-3.00
2019-02-06T18:58:44.984Z,-3.20
2019-02-06T19:01:25.476Z,-3.30
2019-02-06T19:04:06.330Z,-3.30
2019-02-06T19:06:46.891Z,-3.30
2019-02-06T19:09:29.008Z,-3.40
2019-02-06T19:12:10.555Z,-3.50
2019-02-06T19:14:51.497Z,-3.60
2019-02-06T19:17:32.132Z,-3.70
2019-02-06T19:20:12.690Z,-3.60
2019-02-06T19:22:53.028Z,-3.60
2019-02-06T19:25:33.848Z,-3.70
2019-02-06T19:28:15.060Z,-3.80
2019-02-06T19:30:55.867Z,-3.80
2019-02-06T19:33:36.612Z,-4.00
2019-02-06T19:36:16.939Z,-4.00
2019-02-06T19:38:57.361Z,-4.10
2019-02-06T19:41:38.088Z,-4.20
2019-02-06T19:44:18.875Z,-4.30
2019-02-06T19:46:59.494Z,-4.30
2019-02-06T19:49:40.407Z,-4.20
2019-02-06T19:52:21.166Z,-4.30
2019-02-06T19:55:02.325Z,-4.30
2019-02-06T19:57:42.819Z,-4.50
2019-02-06T20:00:23.369Z,-4.50
2019-02-06T20:03:03.763Z,-4.50
2019-02-06T20:05:44.597Z,-4.40
2019-02-06T20:08:25.218Z,-4.50
2019-02-06T20:11:06.377Z,-4.50
2019-02-06T20:13:47.024Z,-4.40
2019-02-06T20:16:27.715Z,-4.50
2019-02-06T20:19:08.763Z,-4.50
2019-02-06T20:21:49.513Z,-4.50
2019-02-06T20:24:30.236Z,-4.50
2019-02-06T20:27:11.232Z,-4.50
2019-02-06T20:29:51.791Z,-4.50
2019-02-06T20:32:32.615Z,-4.40
2019-02-06T20:35:13.283Z,-4.30
2019-02-06T20:37:53.696Z,-4.50
2019-02-06T20:40:34.703Z,-4.60
2019-02-06T20:43:22.075Z,-4.60
2019-02-06T20:45:58.136Z,-4.70
2019-02-06T20:48:38.736Z,-4.90
2019-02-06T20:51:19.528Z,-4.90
2019-02-06T20:54:00.116Z,-4.90
2019-02-06T20:56:40.940Z,-4.90
2019-02-06T20:59:22.116Z,-5.00
2019-02-06T21:02:02.836Z,-5.10
2019-02-06T21:04:44.357Z,-5.20
2019-02-06T21:07:26.299Z,-5.20
2019-02-06T21:10:07.087Z,-5.30
2019-02-06T21:12:47.772Z,-5.40
2019-02-06T21:15:28.543Z,-5.50
2019-02-06T21:18:09.075Z,-5.60
2019-02-06T21:20:51.915Z,-5.60
2019-02-06T21:23:32.955Z,-5.60
2019-02-06T21:26:13.728Z,-5.70
2019-02-06T21:28:54.419Z,-5.60
2019-02-06T21:31:35.220Z,-5.60
2019-02-06T21:34:15.754Z,-5.60
2019-02-06T21:36:56.528Z,-5.70
2019-02-06T21:39:36.939Z,-5.60
2019-02-06T21:42:17.455Z,-5.50
2019-02-06T21:44:58.215Z,-5.60
2019-02-06T21:47:39.087Z,-5.70
2019-02-06T21:50:19.795Z,-5.60
2019-02-06T21:53:00.364Z,-5.50
2019-02-06T21:55:41.092Z,-5.60
2019-02-06T21:58:21.640Z,-5.60
2019-02-06T22:01:02.425Z,-5.70
2019-02-06T22:03:43.188Z,-5.80
2019-02-06T22:06:23.941Z,-5.90
2019-02-06T22:09:04.707Z,-5.80
2019-02-06T22:11:45.728Z,-6.00
2019-02-06T22:14:26.467Z,-6.10
2019-02-06T22:17:07.351Z,-6.00
2019-02-06T22:19:48.667Z,-6.00
2019-02-06T22:22:29.159Z,-6.00
2019-02-06T22:25:10.083Z,-6.00
2019-02-06T22:27:50.966Z,-6.10
2019-02-06T22:30:31.863Z,-6.00
2019-02-06T22:33:12.427Z,-6.00
2019-02-06T22:35:52.996Z,-6.00
2019-02-06T22:38:33.447Z,-6.00
2019-02-06T22:41:13.904Z,-5.80
2019-02-06T22:44:04.995Z,-5.90
2019-02-06T22:46:37.147Z,-5.80
2019-02-06T22:49:18.379Z,-6.00
2019-02-06T22:51:59.125Z,-6.20
2019-02-06T22:54:39.485Z,-6.20
2019-02-06T22:57:20.452Z,-6.20
2019-02-06T23:00:01.119Z,-6.20
2019-02-06T23:02:41.788Z,-6.20
2019-02-06T23:05:22.788Z,-6.40
2019-02-06T23:08:03.341Z,-6.40
2019-02-06T23:10:44.053Z,-6.50
2019-02-06T23:13:25.074Z,-6.60
2019-02-06T23:16:06.173Z,-6.80
2019-02-06T23:18:47.060Z,-6.70
2019-02-06T23:21:27.547Z,-6.60
2019-02-06T23:24:08.264Z,-6.60
2019-02-06T23:26:49.102Z,-6.50
2019-02-06T23:29:29.940Z,-6.00
2019-02-06T23:32:11.115Z,-5.80
2019-02-06T23:34:51.504Z,-5.80
2019-02-06T23:37:32.352Z,-5.80
2019-02-06T23:40:13.322Z,-5.90
2019-02-06T23:42:54.179Z,-6.00
2019-02-06T23:45:34.878Z,-6.10
2019-02-06T23:48:15.700Z,-6.30
2019-02-06T23:50:56.131Z,-6.30
2019-02-06T23:53:37.566Z,-6.40
2019-02-06T23:56:18.282Z,-6.50
2019-02-06T23:58:59.207Z,-6.70
